sensor_id;sensor_type;location;lat;lon;timestamp;P1;durP1;ratioP1;P2;durP2;ratioP2
46006;SDS011;31738;50.188;8.524;2023-06-22T00:00:51;10.25;;;8.02;;
46006;SDS011;31738;50.188;8.524;2023-06-22T00:03:20;9.70;;;7.53;;
46006;SDS011;31738;50.188;8.524;2023-06-22T00:05:47;8.40;;;7.50;;
46006;SDS011;31738;50.188;8.524;2023-06-22T00:08:14;9.68;;;7.97;;
46006;SDS011;31738;50.188;8.524;2023-06-22T00:10:40;11.57;;;8.00;;
46006;SDS011;31738;50.188;8.524;2023-06-22T00:13:06;9.95;;;8.13;;
46006;SDS011;31738;50.188;8.524;2023-06-22T00:15:33;9.00;;;8.10;;
46006;SDS011;31738;50.188;8.524;2023-06-22T00:17:58;10.20;;;7.68;;
46006;SDS011;31738;50.188;8.524;2023-06-22T00:20:25;10.15;;;7.90;;
46006;SDS011;31738;50.188;8.524;2023-06-22T00:22:55;9.65;;;8.50;;
46006;SDS011;31738;50.188;8.524;2023-06-22T00:25:21;9.50;;;8.23;;
46006;SDS011;31738;50.188;8.524;2023-06-22T00:27:47;9.27;;;7.97;;
46006;SDS011;31738;50.188;8.524;2023-06-22T00:30:13;11.75;;;8.35;;
46006;SDS011;31738;50.188;8.524;2023-06-22T00:32:40;9.27;;;7.82;;
46006;SDS011;31738;50.188;8.524;2023-06-22T00:35:06;10.63;;;8.30;;
46006;SDS011;31738;50.188;8.524;2023-06-22T00:37:32;10.52;;;8.57;;
46006;SDS011;31738;50.188;8.524;2023-06-22T00:39:58;11.05;;;7.97;;
46006;SDS011;31738;50.188;8.524;2023-06-22T00:42:24;8.85;;;7.95;;
46006;SDS011;31738;50.188;8.524;2023-06-22T00:44:49;9.10;;;8.20;;
46006;SDS011;31738;50.188;8.524;2023-06-22T00:47:17;10.05;;;8.45;;
46006;SDS011;31738;50.188;8.524;2023-06-22T00:49:43;9.77;;;8.52;;
46006;SDS011;31738;50.188;8.524;2023-06-22T00:52:09;10.20;;;8.85;;
46006;SDS011;31738;50.188;8.524;2023-06-22T00:54:42;9.55;;;8.00;;
46006;SDS011;31738;50.188;8.524;2023-06-22T00:57:11;9.32;;;8.43;;
46006;SDS011;31738;50.188;8.524;2023-06-22T00:59:42;11.68;;;8.60;;
46006;SDS011;31738;50.188;8.524;2023-06-22T01:02:08;9.98;;;8.35;;
46006;SDS011;31738;50.188;8.524;2023-06-22T01:04:35;10.68;;;8.38;;
46006;SDS011;31738;50.188;8.524;2023-06-22T01:07:17;13.50;;;8.82;;
46006;SDS011;31738;50.188;8.524;2023-06-22T01:09:58;11.60;;;8.77;;
46006;SDS011;31738;50.188;8.524;2023-06-22T01:12:32;11.18;;;9.50;;
46006;SDS011;31738;50.188;8.524;2023-06-22T01:17:32;13.20;;;9.73;;
46006;SDS011;31738;50.188;8.524;2023-06-22T01:19:58;12.48;;;10.55;;
46006;SDS011;31738;50.188;8.524;2023-06-22T01:22:26;12.40;;;10.45;;
46006;SDS011;31738;50.188;8.524;2023-06-22T01:30:26;10.57;;;9.13;;
46006;SDS011;31738;50.188;8.524;2023-06-22T01:32:56;12.23;;;10.85;;
46006;SDS011;31738;50.188;8.524;2023-06-22T01:35:24;12.77;;;9.95;;
46006;SDS011;31738;50.188;8.524;2023-06-22T01:37:53;11.77;;;10.45;;
46006;SDS011;31738;50.188;8.524;2023-06-22T01:40:20;13.75;;;11.55;;
46006;SDS011;31738;50.188;8.524;2023-06-22T01:42:47;12.23;;;11.02;;
46006;SDS011;31738;50.188;8.524;2023-06-22T01:45:13;15.48;;;12.95;;
46006;SDS011;31738;50.188;8.524;2023-06-22T01:47:40;15.23;;;12.15;;
46006;SDS011;31738;50.188;8.524;2023-06-22T01:50:08;14.15;;;12.18;;
46006;SDS011;31738;50.188;8.524;2023-06-22T01:52:34;13.07;;;11.68;;
46006;SDS011;31738;50.188;8.524;2023-06-22T01:55:00;18.08;;;12.07;;
46006;SDS011;31738;50.188;8.524;2023-06-22T01:57:26;15.10;;;12.23;;
46006;SDS011;31738;50.188;8.524;2023-06-22T01:59:55;13.98;;;11.63;;
46006;SDS011;31738;50.188;8.524;2023-06-22T02:02:43;16.23;;;12.30;;
46006;SDS011;31738;50.188;8.524;2023-06-22T02:05:17;14.30;;;11.50;;
46006;SDS011;31738;50.188;8.524;2023-06-22T02:07:49;12.80;;;11.30;;
46006;SDS011;31738;50.188;8.524;2023-06-22T02:10:22;12.80;;;11.43;;
46006;SDS011;31738;50.188;8.524;2023-06-22T02:12:49;16.13;;;12.30;;
46006;SDS011;31738;50.188;8.524;2023-06-22T02:15:16;15.20;;;11.30;;
46006;SDS011;31738;50.188;8.524;2023-06-22T02:17:42;14.52;;;12.02;;
46006;SDS011;31738;50.188;8.524;2023-06-22T02:20:14;16.05;;;12.50;;
46006;SDS011;31738;50.188;8.524;2023-06-22T02:22:40;15.45;;;12.30;;
46006;SDS011;31738;50.188;8.524;2023-06-22T02:25:10;16.52;;;12.75;;
46006;SDS011;31738;50.188;8.524;2023-06-22T02:27:35;14.77;;;12.15;;
46006;SDS011;31738;50.188;8.524;2023-06-22T02:30:01;15.57;;;12.20;;
46006;SDS011;31738;50.188;8.524;2023-06-22T02:32:27;16.70;;;12.85;;
46006;SDS011;31738;50.188;8.524;2023-06-22T02:34:53;15.60;;;12.45;;
46006;SDS011;31738;50.188;8.524;2023-06-22T02:37:18;15.43;;;12.75;;
46006;SDS011;31738;50.188;8.524;2023-06-22T02:39:43;13.65;;;11.82;;
46006;SDS011;31738;50.188;8.524;2023-06-22T02:42:09;13.80;;;12.32;;
46006;SDS011;31738;50.188;8.524;2023-06-22T02:44:38;14.77;;;11.75;;
46006;SDS011;31738;50.188;8.524;2023-06-22T02:47:04;14.77;;;11.98;;
46006;SDS011;31738;50.188;8.524;2023-06-22T02:49:30;12.73;;;11.43;;
46006;SDS011;31738;50.188;8.524;2023-06-22T02:51:55;18.17;;;12.10;;
46006;SDS011;31738;50.188;8.524;2023-06-22T02:54:22;14.18;;;11.85;;
46006;SDS011;31738;50.188;8.524;2023-06-22T02:56:50;14.00;;;12.07;;
46006;SDS011;31738;50.188;8.524;2023-06-22T02:59:16;14.55;;;12.07;;
46006;SDS011;31738;50.188;8.524;2023-06-22T03:01:44;15.63;;;11.88;;
46006;SDS011;31738;50.188;8.524;2023-06-22T03:04:23;14.80;;;11.90;;
46006;SDS011;31738;50.188;8.524;2023-06-22T03:06:49;15.68;;;12.43;;
46006;SDS011;31738;50.188;8.524;2023-06-22T03:09:16;14.15;;;12.25;;
46006;SDS011;31738;50.188;8.524;2023-06-22T03:11:42;19.33;;;12.90;;
46006;SDS011;31738;50.188;8.524;2023-06-22T03:14:08;14.20;;;12.70;;
46006;SDS011;31738;50.188;8.524;2023-06-22T03:16:34;14.15;;;12.35;;
46006;SDS011;31738;50.188;8.524;2023-06-22T03:19:00;17.42;;;12.27;;
46006;SDS011;31738;50.188;8.524;2023-06-22T03:21:27;15.40;;;12.38;;
46006;SDS011;31738;50.188;8.524;2023-06-22T03:23:54;14.57;;;12.45;;
46006;SDS011;31738;50.188;8.524;2023-06-22T03:26:20;15.95;;;13.43;;
46006;SDS011;31738;50.188;8.524;2023-06-22T03:28:45;16.73;;;13.02;;
46006;SDS011;31738;50.188;8.524;2023-06-22T03:31:11;15.40;;;12.20;;
46006;SDS011;31738;50.188;8.524;2023-06-22T03:33:39;13.13;;;11.73;;
46006;SDS011;31738;50.188;8.524;2023-06-22T03:36:04;15.57;;;12.18;;
46006;SDS011;31738;50.188;8.524;2023-06-22T03:38:30;16.48;;;12.13;;
46006;SDS011;31738;50.188;8.524;2023-06-22T03:40:56;15.73;;;12.82;;
46006;SDS011;31738;50.188;8.524;2023-06-22T03:43:23;13.68;;;11.35;;
46006;SDS011;31738;50.188;8.524;2023-06-22T03:45:48;15.80;;;12.25;;
46006;SDS011;31738;50.188;8.524;2023-06-22T03:48:13;13.90;;;11.98;;
46006;SDS011;31738;50.188;8.524;2023-06-22T03:50:39;15.30;;;11.98;;
46006;SDS011;31738;50.188;8.524;2023-06-22T03:53:04;17.23;;;12.40;;
46006;SDS011;31738;50.188;8.524;2023-06-22T03:55:30;14.52;;;12.00;;
46006;SDS011;31738;50.188;8.524;2023-06-22T03:57:55;12.88;;;11.40;;
46006;SDS011;31738;50.188;8.524;2023-06-22T04:00:25;15.40;;;11.32;;
46006;SDS011;31738;50.188;8.524;2023-06-22T04:02:50;14.30;;;12.07;;
46006;SDS011;31738;50.188;8.524;2023-06-22T04:05:16;13.38;;;11.82;;
46006;SDS011;31738;50.188;8.524;2023-06-22T04:07:44;14.70;;;11.75;;
46006;SDS011;31738;50.188;8.524;2023-06-22T04:10:09;14.00;;;11.88;;
46006;SDS011;31738;50.188;8.524;2023-06-22T04:12:35;14.02;;;11.77;;
46006;SDS011;31738;50.188;8.524;2023-06-22T04:15:01;14.68;;;11.15;;
46006;SDS011;31738;50.188;8.524;2023-06-22T04:17:26;12.52;;;10.88;;
46006;SDS011;31738;50.188;8.524;2023-06-22T04:19:52;15.68;;;11.30;;
46006;SDS011;31738;50.188;8.524;2023-06-22T04:22:17;14.20;;;12.15;;
46006;SDS011;31738;50.188;8.524;2023-06-22T04:24:43;13.45;;;11.88;;
46006;SDS011;31738;50.188;8.524;2023-06-22T04:27:09;12.88;;;11.13;;
46006;SDS011;31738;50.188;8.524;2023-06-22T04:29:34;13.15;;;11.60;;
46006;SDS011;31738;50.188;8.524;2023-06-22T04:32:00;13.65;;;11.85;;
46006;SDS011;31738;50.188;8.524;2023-06-22T04:34:30;17.20;;;11.82;;
46006;SDS011;31738;50.188;8.524;2023-06-22T04:36:56;14.25;;;11.90;;
46006;SDS011;31738;50.188;8.524;2023-06-22T04:39:22;15.10;;;11.93;;
46006;SDS011;31738;50.188;8.524;2023-06-22T04:41:48;13.70;;;11.20;;
46006;SDS011;31738;50.188;8.524;2023-06-22T04:44:15;14.00;;;11.55;;
46006;SDS011;31738;50.188;8.524;2023-06-22T04:46:56;14.77;;;12.95;;
46006;SDS011;31738;50.188;8.524;2023-06-22T04:49:27;15.05;;;12.70;;
46006;SDS011;31738;50.188;8.524;2023-06-22T04:52:00;13.52;;;12.10;;
46006;SDS011;31738;50.188;8.524;2023-06-22T04:54:27;16.05;;;12.30;;
46006;SDS011;31738;50.188;8.524;2023-06-22T04:56:52;15.90;;;12.18;;
46006;SDS011;31738;50.188;8.524;2023-06-22T04:59:28;13.82;;;11.95;;
46006;SDS011;31738;50.188;8.524;2023-06-22T05:01:55;13.18;;;11.45;;
46006;SDS011;31738;50.188;8.524;2023-06-22T05:04:22;13.15;;;11.50;;
46006;SDS011;31738;50.188;8.524;2023-06-22T05:06:52;14.55;;;11.40;;
46006;SDS011;31738;50.188;8.524;2023-06-22T05:09:18;17.73;;;12.85;;
46006;SDS011;31738;50.188;8.524;2023-06-22T05:11:44;14.38;;;11.90;;
46006;SDS011;31738;50.188;8.524;2023-06-22T05:14:10;13.95;;;11.82;;
46006;SDS011;31738;50.188;8.524;2023-06-22T05:16:40;13.38;;;11.50;;
46006;SDS011;31738;50.188;8.524;2023-06-22T05:19:09;14.95;;;11.77;;
46006;SDS011;31738;50.188;8.524;2023-06-22T05:21:34;14.10;;;11.48;;
46006;SDS011;31738;50.188;8.524;2023-06-22T05:24:00;13.88;;;12.35;;
46006;SDS011;31738;50.188;8.524;2023-06-22T05:26:31;15.65;;;12.18;;
46006;SDS011;31738;50.188;8.524;2023-06-22T05:28:59;14.82;;;11.30;;
46006;SDS011;31738;50.188;8.524;2023-06-22T05:31:26;13.90;;;11.25;;
46006;SDS011;31738;50.188;8.524;2023-06-22T05:33:52;12.60;;;11.30;;
46006;SDS011;31738;50.188;8.524;2023-06-22T05:36:19;14.70;;;11.65;;
46006;SDS011;31738;50.188;8.524;2023-06-22T05:38:50;12.95;;;11.07;;
46006;SDS011;31738;50.188;8.524;2023-06-22T05:41:17;13.65;;;11.80;;
46006;SDS011;31738;50.188;8.524;2023-06-22T05:43:42;14.13;;;11.80;;
46006;SDS011;31738;50.188;8.524;2023-06-22T05:46:08;13.88;;;11.43;;
46006;SDS011;31738;50.188;8.524;2023-06-22T05:48:34;13.75;;;11.02;;
46006;SDS011;31738;50.188;8.524;2023-06-22T05:50:59;14.20;;;11.52;;
46006;SDS011;31738;50.188;8.524;2023-06-22T05:53:25;13.85;;;11.38;;
46006;SDS011;31738;50.188;8.524;2023-06-22T05:55:50;14.15;;;11.95;;
46006;SDS011;31738;50.188;8.524;2023-06-22T05:58:16;13.70;;;11.93;;
46006;SDS011;31738;50.188;8.524;2023-06-22T06:00:42;13.20;;;11.77;;
46006;SDS011;31738;50.188;8.524;2023-06-22T06:03:08;12.15;;;10.82;;
46006;SDS011;31738;50.188;8.524;2023-06-22T06:05:35;15.93;;;12.20;;
46006;SDS011;31738;50.188;8.524;2023-06-22T06:08:02;13.98;;;12.25;;
46006;SDS011;31738;50.188;8.524;2023-06-22T06:10:32;13.15;;;11.18;;
46006;SDS011;31738;50.188;8.524;2023-06-22T06:12:58;14.40;;;11.18;;
46006;SDS011;31738;50.188;8.524;2023-06-22T06:15:27;13.98;;;11.05;;
46006;SDS011;31738;50.188;8.524;2023-06-22T06:18:02;13.30;;;11.52;;
46006;SDS011;31738;50.188;8.524;2023-06-22T06:20:30;17.23;;;11.70;;
46006;SDS011;31738;50.188;8.524;2023-06-22T06:22:56;14.70;;;11.85;;
46006;SDS011;31738;50.188;8.524;2023-06-22T06:25:22;14.45;;;11.68;;
46006;SDS011;31738;50.188;8.524;2023-06-22T06:27:51;13.43;;;11.60;;
46006;SDS011;31738;50.188;8.524;2023-06-22T06:30:17;12.68;;;11.38;;
46006;SDS011;31738;50.188;8.524;2023-06-22T06:32:46;14.38;;;11.70;;
46006;SDS011;31738;50.188;8.524;2023-06-22T06:35:14;16.17;;;11.57;;
46006;SDS011;31738;50.188;8.524;2023-06-22T06:37:44;12.55;;;11.25;;
46006;SDS011;31738;50.188;8.524;2023-06-22T06:40:12;12.70;;;10.90;;
46006;SDS011;31738;50.188;8.524;2023-06-22T06:42:46;12.98;;;10.65;;
46006;SDS011;31738;50.188;8.524;2023-06-22T06:45:17;15.35;;;11.73;;
46006;SDS011;31738;50.188;8.524;2023-06-22T06:47:44;16.02;;;11.75;;
46006;SDS011;31738;50.188;8.524;2023-06-22T06:50:13;15.50;;;11.70;;
46006;SDS011;31738;50.188;8.524;2023-06-22T06:52:38;13.40;;;12.00;;
46006;SDS011;31738;50.188;8.524;2023-06-22T06:55:04;14.02;;;11.27;;
46006;SDS011;31738;50.188;8.524;2023-06-22T06:57:34;14.10;;;11.48;;
46006;SDS011;31738;50.188;8.524;2023-06-22T07:00:00;15.32;;;12.07;;
46006;SDS011;31738;50.188;8.524;2023-06-22T07:02:26;13.60;;;10.93;;
46006;SDS011;31738;50.188;8.524;2023-06-22T07:04:53;12.93;;;11.43;;
46006;SDS011;31738;50.188;8.524;2023-06-22T07:07:20;16.13;;;11.93;;
46006;SDS011;31738;50.188;8.524;2023-06-22T07:12:38;13.10;;;11.70;;
46006;SDS011;31738;50.188;8.524;2023-06-22T07:15:08;13.30;;;11.00;;
46006;SDS011;31738;50.188;8.524;2023-06-22T07:17:34;12.52;;;11.00;;
46006;SDS011;31738;50.188;8.524;2023-06-22T07:20:06;13.50;;;10.93;;
46006;SDS011;31738;50.188;8.524;2023-06-22T07:22:43;15.60;;;11.75;;
46006;SDS011;31738;50.188;8.524;2023-06-22T07:25:16;13.13;;;11.25;;
46006;SDS011;31738;50.188;8.524;2023-06-22T07:27:44;14.80;;;11.30;;
46006;SDS011;31738;50.188;8.524;2023-06-22T07:30:11;12.52;;;10.73;;
46006;SDS011;31738;50.188;8.524;2023-06-22T07:32:37;13.80;;;11.27;;
46006;SDS011;31738;50.188;8.524;2023-06-22T07:35:03;14.48;;;11.00;;
46006;SDS011;31738;50.188;8.524;2023-06-22T07:37:29;14.73;;;11.27;;
46006;SDS011;31738;50.188;8.524;2023-06-22T07:39:55;13.55;;;10.65;;
46006;SDS011;31738;50.188;8.524;2023-06-22T07:42:24;14.50;;;11.80;;
46006;SDS011;31738;50.188;8.524;2023-06-22T07:44:50;12.27;;;10.98;;
46006;SDS011;31738;50.188;8.524;2023-06-22T07:47:16;11.45;;;10.02;;
46006;SDS011;31738;50.188;8.524;2023-06-22T07:49:44;14.38;;;11.80;;
46006;SDS011;31738;50.188;8.524;2023-06-22T07:52:10;16.60;;;11.63;;
46006;SDS011;31738;50.188;8.524;2023-06-22T07:54:39;15.40;;;12.18;;
46006;SDS011;31738;50.188;8.524;2023-06-22T07:57:04;13.57;;;11.55;;
46006;SDS011;31738;50.188;8.524;2023-06-22T07:59:30;13.63;;;11.68;;
46006;SDS011;31738;50.188;8.524;2023-06-22T08:01:55;13.55;;;11.38;;
46006;SDS011;31738;50.188;8.524;2023-06-22T08:04:21;12.07;;;10.88;;
46006;SDS011;31738;50.188;8.524;2023-06-22T08:06:46;16.20;;;11.23;;
46006;SDS011;31738;50.188;8.524;2023-06-22T08:09:12;12.57;;;11.10;;
46006;SDS011;31738;50.188;8.524;2023-06-22T08:11:37;15.02;;;11.43;;
46006;SDS011;31738;50.188;8.524;2023-06-22T08:14:03;14.18;;;11.60;;
46006;SDS011;31738;50.188;8.524;2023-06-22T08:16:28;14.32;;;10.90;;
46006;SDS011;31738;50.188;8.524;2023-06-22T08:18:54;12.60;;;11.30;;
46006;SDS011;31738;50.188;8.524;2023-06-22T08:21:19;14.07;;;11.57;;
46006;SDS011;31738;50.188;8.524;2023-06-22T08:23:45;12.60;;;10.85;;
46006;SDS011;31738;50.188;8.524;2023-06-22T08:26:10;12.93;;;10.98;;
46006;SDS011;31738;50.188;8.524;2023-06-22T08:28:36;14.07;;;10.95;;
46006;SDS011;31738;50.188;8.524;2023-06-22T08:31:01;12.52;;;11.23;;
46006;SDS011;31738;50.188;8.524;2023-06-22T08:33:27;13.13;;;11.75;;
46006;SDS011;31738;50.188;8.524;2023-06-22T08:35:55;11.60;;;10.40;;
46006;SDS011;31738;50.188;8.524;2023-06-22T08:38:21;12.88;;;11.32;;
46006;SDS011;31738;50.188;8.524;2023-06-22T08:40:46;14.20;;;11.13;;
46006;SDS011;31738;50.188;8.524;2023-06-22T08:43:12;14.40;;;11.65;;
46006;SDS011;31738;50.188;8.524;2023-06-22T08:45:37;18.50;;;11.57;;
46006;SDS011;31738;50.188;8.524;2023-06-22T08:48:03;13.88;;;11.40;;
46006;SDS011;31738;50.188;8.524;2023-06-22T08:50:28;12.93;;;10.88;;
46006;SDS011;31738;50.188;8.524;2023-06-22T08:52:54;12.52;;;11.23;;
46006;SDS011;31738;50.188;8.524;2023-06-22T08:55:19;13.80;;;12.07;;
46006;SDS011;31738;50.188;8.524;2023-06-22T08:57:45;15.85;;;12.23;;
46006;SDS011;31738;50.188;8.524;2023-06-22T09:00:10;13.55;;;11.68;;
46006;SDS011;31738;50.188;8.524;2023-06-22T09:02:44;13.17;;;11.73;;
46006;SDS011;31738;50.188;8.524;2023-06-22T09:05:15;12.35;;;11.05;;
46006;SDS011;31738;50.188;8.524;2023-06-22T09:07:41;16.00;;;12.05;;
46006;SDS011;31738;50.188;8.524;2023-06-22T09:10:07;13.82;;;11.68;;
46006;SDS011;31738;50.188;8.524;2023-06-22T09:12:48;12.77;;;11.52;;
46006;SDS011;31738;50.188;8.524;2023-06-22T09:15:28;12.48;;;11.13;;
46006;SDS011;31738;50.188;8.524;2023-06-22T09:17:56;13.52;;;11.70;;
46006;SDS011;31738;50.188;8.524;2023-06-22T09:20:30;15.15;;;12.18;;
46006;SDS011;31738;50.188;8.524;2023-06-22T09:22:57;13.30;;;11.30;;
46006;SDS011;31738;50.188;8.524;2023-06-22T09:25:23;13.57;;;11.73;;
46006;SDS011;31738;50.188;8.524;2023-06-22T09:27:53;13.60;;;11.45;;
46006;SDS011;31738;50.188;8.524;2023-06-22T09:30:31;13.98;;;10.80;;
46006;SDS011;31738;50.188;8.524;2023-06-22T09:33:03;12.88;;;11.60;;
46006;SDS011;31738;50.188;8.524;2023-06-22T09:35:28;14.77;;;11.90;;
46006;SDS011;31738;50.188;8.524;2023-06-22T09:37:54;13.52;;;11.13;;
46006;SDS011;31738;50.188;8.524;2023-06-22T09:40:19;16.00;;;11.75;;
46006;SDS011;31738;50.188;8.524;2023-06-22T09:42:45;13.75;;;10.82;;
46006;SDS011;31738;50.188;8.524;2023-06-22T09:45:10;12.05;;;10.82;;
46006;SDS011;31738;50.188;8.524;2023-06-22T09:47:36;14.07;;;10.98;;
46006;SDS011;31738;50.188;8.524;2023-06-22T09:50:02;12.95;;;11.27;;
46006;SDS011;31738;50.188;8.524;2023-06-22T09:52:27;14.40;;;11.70;;
46006;SDS011;31738;50.188;8.524;2023-06-22T09:54:53;13.35;;;11.95;;
46006;SDS011;31738;50.188;8.524;2023-06-22T09:57:18;12.82;;;11.25;;
46006;SDS011;31738;50.188;8.524;2023-06-22T09:59:44;12.20;;;10.80;;
46006;SDS011;31738;50.188;8.524;2023-06-22T10:02:09;19.65;;;11.95;;
46006;SDS011;31738;50.188;8.524;2023-06-22T10:04:35;12.60;;;11.32;;
46006;SDS011;31738;50.188;8.524;2023-06-22T10:07:01;13.23;;;11.82;;
46006;SDS011;31738;50.188;8.524;2023-06-22T10:09:27;16.30;;;11.88;;
46006;SDS011;31738;50.188;8.524;2023-06-22T10:11:52;12.93;;;11.30;;
46006;SDS011;31738;50.188;8.524;2023-06-22T10:14:18;13.80;;;10.50;;
46006;SDS011;31738;50.188;8.524;2023-06-22T10:16:43;13.25;;;11.05;;
46006;SDS011;31738;50.188;8.524;2023-06-22T10:19:09;13.38;;;11.20;;
46006;SDS011;31738;50.188;8.524;2023-06-22T10:21:34;12.45;;;11.15;;
46006;SDS011;31738;50.188;8.524;2023-06-22T10:24:00;12.93;;;11.18;;
46006;SDS011;31738;50.188;8.524;2023-06-22T10:26:34;12.35;;;11.02;;
46006;SDS011;31738;50.188;8.524;2023-06-22T10:29:00;13.55;;;11.70;;
46006;SDS011;31738;50.188;8.524;2023-06-22T10:31:27;12.82;;;10.75;;
46006;SDS011;31738;50.188;8.524;2023-06-22T10:33:53;13.38;;;11.35;;
46006;SDS011;31738;50.188;8.524;2023-06-22T10:36:18;12.95;;;11.65;;
46006;SDS011;31738;50.188;8.524;2023-06-22T10:38:44;12.00;;;10.80;;
46006;SDS011;31738;50.188;8.524;2023-06-22T10:41:10;13.48;;;11.52;;
46006;SDS011;31738;50.188;8.524;2023-06-22T10:43:36;16.88;;;11.38;;
46006;SDS011;31738;50.188;8.524;2023-06-22T10:46:02;11.68;;;10.40;;
46006;SDS011;31738;50.188;8.524;2023-06-22T10:48:28;11.05;;;9.98;;
46006;SDS011;31738;50.188;8.524;2023-06-22T10:50:53;11.85;;;10.40;;
46006;SDS011;31738;50.188;8.524;2023-06-22T10:53:19;12.95;;;10.55;;
46006;SDS011;31738;50.188;8.524;2023-06-22T10:55:45;11.52;;;10.30;;
46006;SDS011;31738;50.188;8.524;2023-06-22T10:58:10;12.35;;;10.30;;
46006;SDS011;31738;50.188;8.524;2023-06-22T11:00:36;15.60;;;10.27;;
46006;SDS011;31738;50.188;8.524;2023-06-22T11:03:02;13.30;;;9.85;;
46006;SDS011;31738;50.188;8.524;2023-06-22T11:05:27;12.50;;;10.82;;
46006;SDS011;31738;50.188;8.524;2023-06-22T11:07:53;11.80;;;9.15;;
46006;SDS011;31738;50.188;8.524;2023-06-22T11:10:19;12.40;;;7.55;;
46006;SDS011;31738;50.188;8.524;2023-06-22T11:12:45;7.95;;;7.15;;
46006;SDS011;31738;50.188;8.524;2023-06-22T11:15:10;9.27;;;8.27;;
46006;SDS011;31738;50.188;8.524;2023-06-22T11:17:36;9.40;;;8.27;;
46006;SDS011;31738;50.188;8.524;2023-06-22T11:20:01;8.65;;;7.70;;
46006;SDS011;31738;50.188;8.524;2023-06-22T11:22:31;9.35;;;8.18;;
46006;SDS011;31738;50.188;8.524;2023-06-22T11:25:01;10.07;;;8.00;;
46006;SDS011;31738;50.188;8.524;2023-06-22T11:27:27;12.32;;;7.90;;
46006;SDS011;31738;50.188;8.524;2023-06-22T11:29:56;10.75;;;8.73;;
46006;SDS011;31738;50.188;8.524;2023-06-22T11:32:22;11.63;;;8.38;;
46006;SDS011;31738;50.188;8.524;2023-06-22T11:34:48;8.73;;;7.53;;
46006;SDS011;31738;50.188;8.524;2023-06-22T11:37:14;13.77;;;8.32;;
46006;SDS011;31738;50.188;8.524;2023-06-22T11:39:40;9.95;;;8.55;;
46006;SDS011;31738;50.188;8.524;2023-06-22T11:42:08;10.95;;;8.15;;
46006;SDS011;31738;50.188;8.524;2023-06-22T11:44:34;11.38;;;8.48;;
46006;SDS011;31738;50.188;8.524;2023-06-22T11:47:00;11.48;;;8.52;;
46006;SDS011;31738;50.188;8.524;2023-06-22T11:49:26;9.80;;;8.40;;
46006;SDS011;31738;50.188;8.524;2023-06-22T11:51:52;12.23;;;8.30;;
46006;SDS011;31738;50.188;8.524;2023-06-22T11:54:18;10.93;;;8.32;;
46006;SDS011;31738;50.188;8.524;2023-06-22T11:56:43;10.57;;;8.20;;
46006;SDS011;31738;50.188;8.524;2023-06-22T11:59:09;11.93;;;8.55;;
46006;SDS011;31738;50.188;8.524;2023-06-22T12:01:34;10.30;;;8.68;;
46006;SDS011;31738;50.188;8.524;2023-06-22T12:03:59;12.57;;;9.25;;
46006;SDS011;31738;50.188;8.524;2023-06-22T12:06:25;13.60;;;8.75;;
46006;SDS011;31738;50.188;8.524;2023-06-22T12:08:50;11.30;;;8.73;;
46006;SDS011;31738;50.188;8.524;2023-06-22T12:11:16;11.00;;;8.48;;
46006;SDS011;31738;50.188;8.524;2023-06-22T12:13:41;11.73;;;8.18;;
46006;SDS011;31738;50.188;8.524;2023-06-22T12:16:07;14.65;;;9.15;;
46006;SDS011;31738;50.188;8.524;2023-06-22T12:18:32;13.02;;;8.90;;
46006;SDS011;31738;50.188;8.524;2023-06-22T12:20:58;13.20;;;8.82;;
46006;SDS011;31738;50.188;8.524;2023-06-22T12:23:23;13.20;;;9.23;;
46006;SDS011;31738;50.188;8.524;2023-06-22T12:25:49;13.75;;;9.13;;
46006;SDS011;31738;50.188;8.524;2023-06-22T12:28:14;12.88;;;9.63;;
46006;SDS011;31738;50.188;8.524;2023-06-22T12:30:40;13.65;;;9.20;;
46006;SDS011;31738;50.188;8.524;2023-06-22T12:33:05;13.15;;;9.68;;
46006;SDS011;31738;50.188;8.524;2023-06-22T12:35:31;12.88;;;9.55;;
46006;SDS011;31738;50.188;8.524;2023-06-22T12:37:56;11.93;;;10.00;;
46006;SDS011;31738;50.188;8.524;2023-06-22T12:40:21;12.70;;;9.05;;
46006;SDS011;31738;50.188;8.524;2023-06-22T12:42:47;14.00;;;9.75;;
46006;SDS011;31738;50.188;8.524;2023-06-22T12:45:13;19.00;;;10.10;;
46006;SDS011;31738;50.188;8.524;2023-06-22T12:47:38;13.93;;;9.80;;
46006;SDS011;31738;50.188;8.524;2023-06-22T12:50:04;14.15;;;9.73;;
46006;SDS011;31738;50.188;8.524;2023-06-22T12:52:30;11.18;;;9.85;;
46006;SDS011;31738;50.188;8.524;2023-06-22T12:54:58;12.52;;;9.80;;
46006;SDS011;31738;50.188;8.524;2023-06-22T12:57:24;15.93;;;9.90;;
46006;SDS011;31738;50.188;8.524;2023-06-22T12:59:53;12.35;;;9.38;;
46006;SDS011;31738;50.188;8.524;2023-06-22T13:02:18;14.82;;;10.05;;
46006;SDS011;31738;50.188;8.524;2023-06-22T13:04:44;12.73;;;9.05;;
46006;SDS011;31738;50.188;8.524;2023-06-22T13:07:09;20.77;;;9.52;;
46006;SDS011;31738;50.188;8.524;2023-06-22T13:09:36;11.43;;;9.55;;
46006;SDS011;31738;50.188;8.524;2023-06-22T13:12:02;11.55;;;8.85;;
46006;SDS011;31738;50.188;8.524;2023-06-22T13:14:27;17.95;;;9.05;;
46006;SDS011;31738;50.188;8.524;2023-06-22T13:16:53;14.77;;;8.75;;
46006;SDS011;31738;50.188;8.524;2023-06-22T13:19:18;11.23;;;8.63;;
46006;SDS011;31738;50.188;8.524;2023-06-22T13:21:44;22.20;;;9.07;;
46006;SDS011;31738;50.188;8.524;2023-06-22T13:24:09;14.65;;;9.20;;
46006;SDS011;31738;50.188;8.524;2023-06-22T13:26:35;14.18;;;8.77;;
46006;SDS011;31738;50.188;8.524;2023-06-22T13:29:00;12.60;;;8.98;;
46006;SDS011;31738;50.188;8.524;2023-06-22T13:31:26;12.63;;;9.32;;
46006;SDS011;31738;50.188;8.524;2023-06-22T13:33:51;15.98;;;9.38;;
46006;SDS011;31738;50.188;8.524;2023-06-22T13:36:18;15.95;;;9.57;;
46006;SDS011;31738;50.188;8.524;2023-06-22T13:38:43;13.32;;;10.20;;
46006;SDS011;31738;50.188;8.524;2023-06-22T13:41:09;13.75;;;9.65;;
46006;SDS011;31738;50.188;8.524;2023-06-22T13:43:34;15.68;;;10.50;;
46006;SDS011;31738;50.188;8.524;2023-06-22T13:46:00;16.27;;;10.55;;
46006;SDS011;31738;50.188;8.524;2023-06-22T13:48:28;13.27;;;9.73;;
46006;SDS011;31738;50.188;8.524;2023-06-22T13:50:53;16.25;;;10.98;;
46006;SDS011;31738;50.188;8.524;2023-06-22T13:53:19;14.93;;;10.05;;
46006;SDS011;31738;50.188;8.524;2023-06-22T13:55:45;16.02;;;9.80;;
46006;SDS011;31738;50.188;8.524;2023-06-22T13:58:11;14.73;;;9.75;;
46006;SDS011;31738;50.188;8.524;2023-06-22T14:00:37;13.98;;;9.50;;
46006;SDS011;31738;50.188;8.524;2023-06-22T14:03:02;12.73;;;10.05;;
46006;SDS011;31738;50.188;8.524;2023-06-22T14:05:28;11.02;;;9.82;;
46006;SDS011;31738;50.188;8.524;2023-06-22T14:07:53;17.92;;;10.27;;
46006;SDS011;31738;50.188;8.524;2023-06-22T14:10:22;16.05;;;10.07;;
46006;SDS011;31738;50.188;8.524;2023-06-22T14:12:47;13.05;;;9.75;;
46006;SDS011;31738;50.188;8.524;2023-06-22T14:15:13;13.25;;;9.95;;
46006;SDS011;31738;50.188;8.524;2023-06-22T14:17:38;12.88;;;10.48;;
46006;SDS011;31738;50.188;8.524;2023-06-22T14:20:04;18.40;;;10.32;;
46006;SDS011;31738;50.188;8.524;2023-06-22T14:22:31;12.25;;;9.80;;
46006;SDS011;31738;50.188;8.524;2023-06-22T14:24:56;15.02;;;9.93;;
46006;SDS011;31738;50.188;8.524;2023-06-22T14:27:22;13.70;;;10.10;;
46006;SDS011;31738;50.188;8.524;2023-06-22T14:29:48;13.65;;;10.30;;
46006;SDS011;31738;50.188;8.524;2023-06-22T14:32:14;13.80;;;10.20;;
46006;SDS011;31738;50.188;8.524;2023-06-22T14:34:39;11.15;;;9.10;;